createdAt,value
2022-08-17T00:01:22.569Z,23.42
2022-08-17T00:06:29.768Z,24.77
2022-08-17T00:11:38.741Z,24.05
2022-08-17T00:16:56.040Z,22.83
2022-08-17T00:22:33.912Z,22.05
2022-08-17T00:27:24.787Z,24.63
2022-08-17T00:33:22.894Z,27.27
2022-08-17T00:37:50.546Z,29.20
2022-08-17T00:42:53.327Z,29.00
2022-08-17T00:47:55.410Z,28.40
2022-08-17T00:52:58.513Z,30.55
2022-08-17T00:58:03.005Z,30.15
2022-08-17T01:03:09.906Z,30.25
2022-08-17T01:08:15.187Z,28.92
2022-08-17T01:13:17.461Z,28.50
2022-08-17T01:18:19.565Z,28.90
2022-08-17T01:23:24.027Z,29.80
2022-08-17T01:28:33.389Z,26.30
2022-08-17T01:33:53.359Z,25.10
2022-08-17T01:38:55.437Z,25.95
2022-08-17T01:44:01.451Z,25.67
2022-08-17T01:49:08.999Z,26.02
2022-08-17T01:54:15.834Z,24.80
2022-08-17T01:59:19.728Z,26.70
2022-08-17T02:04:21.763Z,25.05
2022-08-17T02:09:29.738Z,25.00
2022-08-17T02:14:32.181Z,26.30
2022-08-17T02:19:34.185Z,25.33
2022-08-17T02:25:00.358Z,26.08
2022-08-17T02:29:59.962Z,25.60
2022-08-17T02:35:01.972Z,26.05
2022-08-17T02:40:05.273Z,26.58
2022-08-17T02:45:19.547Z,24.95
2022-08-17T02:50:24.252Z,25.67
2022-08-17T02:55:32.683Z,25.08
2022-08-17T03:00:42.308Z,25.90
2022-08-17T03:05:48.002Z,26.83
2022-08-17T03:10:50.408Z,28.83
2022-08-17T03:15:52.525Z,26.45
2022-08-17T03:20:57.673Z,28.10
2022-08-17T03:26:00.187Z,26.20
2022-08-17T03:31:02.960Z,24.48
2022-08-17T03:36:05.458Z,21.52
2022-08-17T03:41:07.640Z,21.80
2022-08-17T03:46:35.342Z,19.98
2022-08-17T03:51:56.173Z,20.55
2022-08-17T03:57:01.111Z,20.77
2022-08-17T04:02:09.635Z,20.77
2022-08-17T04:07:11.777Z,20.08
2022-08-17T04:12:19.328Z,19.35
2022-08-17T04:17:24.108Z,19.38
2022-08-17T04:22:32.204Z,19.45
2022-08-17T04:27:36.448Z,19.73
2022-08-17T04:33:07.303Z,20.92
2022-08-17T04:38:12.155Z,22.93
2022-08-17T04:43:18.611Z,22.50
2022-08-17T04:48:21.189Z,22.15
2022-08-17T04:53:23.195Z,23.33
2022-08-17T04:58:25.249Z,24.27
2022-08-17T05:03:27.984Z,23.42
2022-08-17T05:08:30.083Z,24.08
2022-08-17T05:13:32.106Z,24.15
2022-08-17T05:18:34.155Z,24.13
2022-08-17T05:23:42.972Z,23.70
2022-08-17T05:28:46.048Z,23.50
2022-08-17T05:33:49.419Z,21.95
2022-08-17T05:38:51.488Z,21.60
2022-08-17T05:43:56.439Z,20.00
2022-08-17T05:49:05.496Z,19.52
2022-08-17T05:54:17.501Z,21.30
2022-08-17T05:59:41.024Z,19.38
2022-08-17T06:05:24.368Z,16.80
2022-08-17T06:10:53.768Z,18.25
2022-08-17T06:16:31.145Z,17.50
2022-08-17T06:21:35.775Z,16.90
2022-08-17T06:26:43.163Z,16.33
2022-08-17T06:31:45.719Z,16.85
2022-08-17T06:37:06.418Z,16.98
2022-08-17T06:42:53.985Z,17.63
2022-08-17T06:47:49.022Z,17.23
2022-08-17T06:53:16.488Z,16.48
2022-08-17T06:58:24.479Z,16.33
2022-08-17T07:03:37.717Z,15.15
2022-08-17T07:09:05.302Z,13.95
2022-08-17T07:14:36.480Z,12.88
2022-08-17T07:19:40.940Z,12.50
2022-08-17T07:24:51.452Z,11.98
2022-08-17T07:30:20.400Z,10.57
2022-08-17T07:35:31.350Z,10.15
2022-08-17T07:40:46.463Z,9.55
2022-08-17T07:46:25.409Z,8.23
2022-08-17T07:51:31.199Z,8.25
2022-08-17T07:56:41.396Z,7.95
2022-08-17T08:02:31.685Z,7.43
2022-08-17T08:07:39.660Z,8.60
2022-08-17T08:12:46.878Z,8.43
2022-08-17T08:18:01.094Z,7.60
2022-08-17T08:23:16.764Z,8.07
2022-08-17T08:28:33.983Z,8.73
2022-08-17T08:33:51.830Z,8.80
2022-08-17T08:39:17.576Z,8.23
2022-08-17T08:45:01.238Z,8.38
2022-08-17T08:50:37.446Z,7.18
2022-08-17T08:55:55.237Z,7.15
2022-08-17T09:00:58.939Z,7.20
2022-08-17T09:06:32.128Z,6.45
2022-08-17T09:12:08.203Z,6.53
2022-08-17T09:18:28.506Z,6.55
2022-08-17T09:23:32.332Z,6.50
2022-08-17T09:28:37.389Z,7.22
2022-08-17T09:33:45.569Z,7.15
2022-08-17T09:39:00.275Z,7.53
2022-08-17T09:44:22.679Z,7.28
2022-08-17T09:49:37.860Z,8.85
2022-08-17T09:54:41.225Z,8.95
2022-08-17T10:00:16.592Z,8.77
2022-08-17T10:05:25.799Z,8.98
2022-08-17T10:11:05.532Z,8.38
2022-08-17T10:16:22.737Z,8.60
2022-08-17T10:21:44.858Z,9.25
2022-08-17T10:26:56.453Z,11.10
2022-08-17T10:32:05.156Z,12.15
2022-08-17T10:37:09.876Z,12.95
2022-08-17T10:42:30.406Z,13.98
2022-08-17T10:48:04.662Z,13.68
2022-08-17T10:53:07.161Z,14.68
2022-08-17T10:58:24.348Z,14.32
2022-08-17T11:03:29.568Z,14.98
2022-08-17T11:08:50.421Z,16.50
2022-08-17T11:13:58.472Z,16.88
2022-08-17T11:19:18.894Z,16.65
2022-08-17T11:24:40.487Z,15.10
2022-08-17T11:29:58.119Z,16.27
2022-08-17T11:35:19.937Z,15.30
2022-08-17T11:40:34.401Z,15.55
2022-08-17T11:45:42.400Z,15.52
2022-08-17T11:51:11.708Z,15.25
2022-08-17T11:56:41.470Z,15.35
2022-08-17T12:01:55.659Z,15.27
2022-08-17T12:07:16.050Z,14.43
2022-08-17T12:12:29.738Z,14.85
2022-08-17T12:17:40.555Z,15.30
2022-08-17T12:22:54.693Z,17.20
2022-08-17T12:28:06.771Z,15.73
2022-08-17T12:33:13.591Z,15.60
2022-08-17T12:38:32.370Z,16.58
2022-08-17T12:43:34.978Z,16.45
2022-08-17T12:48:37.064Z,16.42
2022-08-17T12:53:53.871Z,15.95
2022-08-17T12:58:57.712Z,15.77
2022-08-17T13:04:00.585Z,14.75
2022-08-17T13:09:11.793Z,17.13
2022-08-17T13:14:15.250Z,16.83
2022-08-17T13:19:40.038Z,16.10
2022-08-17T13:24:53.571Z,16.45
2022-08-17T13:29:59.907Z,17.42
2022-08-17T13:35:29.520Z,15.98
2022-08-17T13:40:52.920Z,17.10
2022-08-17T13:46:08.480Z,18.27
2022-08-17T13:51:23.608Z,18.00
2022-08-17T13:56:37.192Z,19.73
2022-08-17T14:01:53.394Z,22.20
2022-08-17T14:07:21.445Z,21.40
2022-08-17T14:12:26.406Z,22.33
2022-08-17T14:17:36.342Z,20.27
2022-08-17T14:22:44.291Z,18.35
2022-08-17T14:27:53.588Z,17.52
2022-08-17T14:32:57.883Z,18.15
2022-08-17T14:38:02.057Z,18.52
2022-08-17T14:43:04.054Z,18.55
2022-08-17T14:48:09.322Z,18.88
2022-08-17T14:53:13.661Z,20.02
2022-08-17T14:58:15.700Z,20.75
2022-08-17T15:03:18.612Z,20.83
2022-08-17T15:08:20.724Z,20.48
2022-08-17T15:13:25.280Z,20.40
2022-08-17T15:18:27.356Z,21.13
2022-08-17T15:23:29.471Z,20.27
2022-08-17T15:28:32.015Z,20.45
2022-08-17T15:33:34.078Z,19.88
2022-08-17T15:38:39.438Z,21.15
2022-08-17T15:43:42.633Z,21.25
2022-08-17T15:48:48.814Z,20.75
2022-08-17T15:53:56.558Z,20.13
2022-08-17T15:59:00.055Z,20.35
2022-08-17T16:04:07.214Z,20.00
2022-08-17T16:09:24.230Z,19.70
2022-08-17T16:14:34.128Z,18.92
2022-08-17T16:24:47.755Z,20.98
2022-08-17T16:30:00.671Z,21.48
2022-08-17T16:35:09.769Z,21.90
2022-08-17T16:40:12.654Z,20.52
2022-08-17T16:45:25.309Z,20.08
2022-08-17T16:50:27.500Z,20.95
2022-08-17T16:55:29.542Z,21.10
2022-08-17T17:00:33.312Z,21.17
2022-08-17T17:05:55.195Z,21.63
2022-08-17T17:11:10.814Z,22.05
2022-08-17T17:16:29.660Z,21.85
2022-08-17T17:22:10.840Z,21.25
2022-08-17T17:27:29.372Z,21.45
2022-08-17T17:32:38.967Z,21.60
2022-08-17T17:37:43.596Z,22.83
2022-08-17T17:42:46.550Z,22.50
2022-08-17T17:47:49.478Z,22.27
2022-08-17T17:53:14.873Z,22.60
2022-08-17T17:58:38.253Z,22.15
2022-08-17T18:04:01.166Z,23.50
2022-08-17T18:09:08.900Z,21.15
2022-08-17T18:14:35.427Z,19.73
2022-08-17T18:19:39.820Z,21.67
2022-08-17T18:24:44.311Z,21.13
2022-08-17T18:29:47.836Z,21.92
2022-08-17T18:34:53.909Z,21.67
2022-08-17T18:39:55.969Z,23.27
2022-08-17T18:44:58.001Z,23.70
2022-08-17T18:50:28.645Z,22.90
2022-08-17T18:55:31.316Z,24.80
2022-08-17T19:00:42.340Z,24.60
2022-08-17T19:05:51.851Z,25.50
2022-08-17T19:11:07.389Z,24.98
2022-08-17T19:16:21.456Z,26.33
2022-08-17T19:21:48.023Z,22.85
2022-08-17T19:27:00.226Z,25.95
2022-08-17T19:32:02.678Z,26.23
2022-08-17T19:37:16.386Z,27.90
2022-08-17T19:42:33.881Z,28.05
2022-08-17T19:48:03.919Z,26.58
2022-08-17T19:53:20.512Z,27.63
2022-08-17T19:58:31.398Z,25.88
2022-08-17T20:03:56.896Z,27.13
2022-08-17T20:09:05.890Z,28.85
2022-08-17T20:14:13.846Z,27.23
2022-08-17T20:19:45.027Z,28.27
2022-08-17T20:25:02.236Z,29.87
2022-08-17T20:30:12.164Z,28.30
2022-08-17T20:35:16.708Z,28.23
2022-08-17T20:40:23.408Z,27.65
2022-08-17T20:45:26.167Z,29.00
2022-08-17T20:50:38.745Z,28.23
2022-08-17T20:55:51.947Z,27.20
2022-08-17T21:00:58.733Z,27.60
2022-08-17T21:06:17.170Z,26.13
2022-08-17T21:11:57.114Z,26.95
2022-08-17T21:17:29.472Z,28.80
2022-08-17T21:22:50.497Z,32.53
2022-08-17T21:28:23.301Z,34.83
2022-08-17T21:33:38.865Z,33.03
2022-08-17T21:38:47.023Z,33.50
2022-08-17T21:43:51.996Z,32.88
2022-08-17T21:48:58.184Z,31.00
2022-08-17T21:54:03.033Z,31.42
2022-08-17T21:59:27.341Z,34.45
2022-08-17T22:04:31.193Z,32.85
2022-08-17T22:09:35.626Z,32.88
2022-08-17T22:14:52.466Z,30.65
2022-08-17T22:19:59.335Z,29.05
2022-08-17T22:25:06.195Z,28.83
2022-08-17T22:30:38.830Z,28.98
2022-08-17T22:35:43.096Z,26.42
2022-08-17T22:40:45.969Z,23.35
2022-08-17T22:45:51.387Z,23.17
2022-08-17T22:51:12.609Z,22.70
2022-08-17T22:56:37.822Z,19.23
2022-08-17T23:01:41.184Z,21.33
2022-08-17T23:06:43.215Z,20.80
2022-08-17T23:11:49.832Z,20.42
2022-08-17T23:16:52.464Z,19.95
2022-08-17T23:21:56.180Z,18.67
2022-08-17T23:26:58.888Z,18.27
2022-08-17T23:32:01.612Z,18.10
2022-08-17T23:37:04.383Z,17.65
2022-08-17T23:42:09.407Z,18.60
2022-08-17T23:47:11.483Z,18.58
2022-08-17T23:52:16.375Z,17.95
2022-08-17T23:57:33.786Z,18.13
